Time;durP1;ratioP1;P1;durP2;ratioP2;P2;SDS_P1;SDS_P2;PMS_P1;PMS_P2;Temp;Humidity;BMP_temperature;BMP_pressure;BME280_temperature;BME280_humidity;BME280_pressure;Samples;Min_cycle;Max_cycle;Signal;HPM_P1;HPM_P2
2023/11/19 00:02:26;;;;;;;6.20;2.33;;;12.40;99.90;;;;;;6228563;23;20070;-78
2023/11/19 00:04:54;;;;;;;3.72;2.10;;;12.30;99.90;;;;;;6202302;23;20093;-78
2023/11/19 00:07:22;;;;;;;3.22;1.50;;;12.40;99.90;;;;;;6203708;23;20175;-78
2023/11/19 00:09:56;;;;;;;7.38;2.30;;;12.30;99.90;;;;;;6204193;23;20529;-78
2023/11/19 00:12:24;;;;;;;5.47;1.73;;;12.30;99.90;;;;;;6178017;23;20115;-79
2023/11/19 00:14:51;;;;;;;5.20;2.00;;;12.30;99.90;;;;;;6229991;23;20028;-78
2023/11/19 00:17:18;;;;;;;5.30;2.08;;;12.30;99.90;;;;;;6231271;23;20402;-78
2023/11/19 00:19:46;;;;;;;3.50;1.67;;;12.30;99.90;;;;;;6228766;23;20063;-78
2023/11/19 00:22:13;;;;;;;6.70;1.88;;;12.30;99.90;;;;;;6181238;23;20021;-77
2023/11/19 00:24:40;;;;;;;5.65;2.15;;;12.30;99.90;;;;;;6230292;23;20047;-78
2023/11/19 00:27:07;;;;;;;3.63;1.40;;;12.20;99.90;;;;;;6206223;23;20020;-78
2023/11/19 00:29:34;;;;;;;4.18;1.88;;;12.20;99.90;;;;;;6232577;23;20024;-78
2023/11/19 00:32:01;;;;;;;5.22;1.58;;;12.20;99.90;;;;;;6184469;23;20097;-78
2023/11/19 00:34:28;;;;;;;6.10;1.95;;;12.20;99.90;;;;;;6235178;23;20020;-78
2023/11/19 00:36:55;;;;;;;5.80;1.98;;;12.10;99.90;;;;;;6210251;23;20026;-78
2023/11/19 00:39:22;;;;;;;5.10;1.33;;;12.10;99.90;;;;;;6209983;23;20020;-78
2023/11/19 00:41:49;;;;;;;4.57;1.40;;;12.10;99.90;;;;;;6209558;23;20093;-78
2023/11/19 00:44:19;;;;;;;6.40;1.70;;;12.10;99.90;;;;;;6209532;23;20020;-78
2023/11/19 00:46:46;;;;;;;6.75;1.80;;;12.00;99.90;;;;;;6184830;23;20081;-78
2023/11/19 00:49:13;;;;;;;5.38;1.80;;;12.00;99.90;;;;;;6234775;23;20106;-78
2023/11/19 00:51:40;;;;;;;5.30;1.70;;;12.00;99.90;;;;;;6207368;23;20020;-78
2023/11/19 00:54:07;;;;;;;5.80;1.88;;;12.00;99.90;;;;;;6184845;23;20161;-78
2023/11/19 00:56:34;;;;;;;4.15;1.48;;;11.90;99.90;;;;;;6234631;23;20016;-78
2023/11/19 00:59:01;;;;;;;6.28;1.50;;;11.90;99.90;;;;;;6210359;23;20119;-78
2023/11/19 01:01:28;;;;;;;6.40;2.25;;;11.90;99.90;;;;;;6234161;23;20027;-78
2023/11/19 01:03:57;;;;;;;3.15;1.30;;;11.80;99.90;;;;;;6205859;23;20473;-78
2023/11/19 01:06:30;;;;;;;3.13;1.50;;;11.80;99.90;;;;;;6180331;23;20132;-78
2023/11/19 01:08:57;;;;;;;;;;;11.80;99.90;;;;;;6209864;23;20024;-78
2023/11/19 01:11:24;;;;;;;5.22;2.50;;;11.80;99.90;;;;;;6234424;23;19920;-78
2023/11/19 01:13:51;;;;;;;6.15;2.10;;;11.80;99.90;;;;;;6210488;23;20453;-78
2023/11/19 01:16:18;;;;;;;5.07;1.52;;;11.70;99.90;;;;;;6210325;23;20024;-78
2023/11/19 01:18:47;;;;;;;7.00;1.92;;;11.70;1.00;;;;;;6236636;23;20078;-78
2023/11/19 01:21:14;;;;;;;4.30;1.88;;;11.70;1.00;;;;;;6233166;23;20461;-78
2023/11/19 01:23:45;;;;;;;6.40;2.10;;;11.70;1.00;;;;;;6210955;23;20032;-78
2023/11/19 01:26:12;;;;;;;3.85;1.83;;;11.70;1.00;;;;;;6236912;23;20032;-78
2023/11/19 01:28:44;;;;;;;5.30;1.60;;;11.70;1.00;;;;;;6187536;23;20020;-78
2023/11/19 01:31:17;;;;;;;4.00;1.52;;;11.60;1.00;;;;;;6239781;23;20048;-78
2023/11/19 01:33:44;;;;;;;5.35;1.58;;;11.60;1.00;;;;;;6211708;23;20059;-78
2023/11/19 01:36:13;;;;;;;6.93;2.42;;;11.60;1.00;;;;;;6210073;23;20030;-78
2023/11/19 01:38:40;;;;;;;4.10;1.58;;;11.60;1.00;;;;;;6237151;23;20115;-78
2023/11/19 01:41:07;;;;;;;6.93;1.75;;;11.60;1.00;;;;;;6236419;23;20020;-78
2023/11/19 01:43:37;;;;;;;4.57;1.50;;;11.60;1.00;;;;;;6211435;23;20077;-78
2023/11/19 01:46:10;;;;;;;6.15;1.92;;;11.60;99.90;;;;;;6238007;23;20024;-78
2023/11/19 01:48:42;;;;;;;5.00;1.77;;;11.60;99.90;;;;;;6212377;23;20051;-78
2023/11/19 01:51:09;;;;;;;5.78;1.80;;;11.70;99.90;;;;;;6210012;23;20085;-78
2023/11/19 01:53:37;;;;;;;3.88;1.90;;;11.60;99.90;;;;;;6186013;23;20039;-78
2023/11/19 01:56:04;;;;;;;3.53;1.75;;;11.60;99.90;;;;;;6211516;23;20020;-78
2023/11/19 01:58:31;;;;;;;5.85;1.45;;;11.60;99.90;;;;;;6186237;23;20068;-78
2023/11/19 02:00:58;;;;;;;4.03;1.75;;;11.60;99.90;;;;;;6236284;23;20426;-78
2023/11/19 02:03:26;;;;;;;3.95;1.77;;;11.60;99.90;;;;;;6186282;23;20388;-78
2023/11/19 02:05:53;;;;;;;5.90;1.70;;;11.50;99.90;;;;;;6209991;23;20081;-78
2023/11/19 02:08:20;;;;;;;7.05;2.33;;;11.60;99.90;;;;;;6235336;23;20078;-78
2023/11/19 02:10:47;;;;;;;9.50;2.72;;;11.60;99.90;;;;;;6211205;23;20101;-78
2023/11/19 02:13:14;;;;;;;9.55;3.03;;;11.60;99.90;;;;;;6236646;23;20378;-78
2023/11/19 02:15:41;;;;;;;3.95;1.98;;;11.60;99.90;;;;;;6236268;23;20390;-78
2023/11/19 02:18:22;;;;;;;5.47;2.38;;;11.70;99.90;;;;;;6186376;23;20043;-78
2023/11/19 02:20:50;;;;;;;4.25;2.10;;;11.70;99.90;;;;;;6231954;23;20032;-78
2023/11/19 02:23:18;;;;;;;3.13;2.05;;;11.70;99.90;;;;;;6209968;23;20035;-78
2023/11/19 02:25:49;;;;;;;5.07;1.58;;;11.60;99.90;;;;;;6210767;23;20463;-78
2023/11/19 02:28:16;;;;;;;4.32;1.00;;;11.60;99.90;;;;;;6236060;23;20023;-78
2023/11/19 02:30:43;;;;;;;3.15;1.15;;;11.60;99.90;;;;;;6210939;23;20027;-77
2023/11/19 02:33:10;;;;;;;4.60;1.17;;;11.60;99.90;;;;;;6211235;23;20036;-77
2023/11/19 02:35:37;;;;;;;6.28;1.42;;;11.50;99.90;;;;;;6232673;23;20082;-77
2023/11/19 02:38:06;;;;;;;3.80;1.42;;;11.60;99.90;;;;;;6182942;23;20023;-77
2023/11/19 02:40:33;;;;;;;5.25;1.52;;;11.50;99.90;;;;;;6213554;23;20024;-78
2023/11/19 02:43:00;;;;;;;5.28;1.92;;;11.50;99.90;;;;;;6213029;23;20024;-77
2023/11/19 02:45:27;;;;;;;6.57;1.52;;;11.60;99.90;;;;;;6212039;23;20825;-77
2023/11/19 02:47:57;;;;;;;3.47;1.35;;;11.60;99.90;;;;;;6212561;23;20090;-77
2023/11/19 02:50:27;;;;;;;5.78;1.73;;;11.60;99.90;;;;;;6211377;23;20028;-78
2023/11/19 02:52:56;;;;;;;6.85;1.80;;;11.60;99.90;;;;;;6236784;23;20082;-77
2023/11/19 02:55:23;;;;;;;5.60;1.63;;;11.50;99.90;;;;;;6211962;23;20394;-78
2023/11/19 02:57:52;;;;;;;3.70;1.35;;;11.50;99.90;;;;;;6236845;23;20047;-78
2023/11/19 03:03:22;;;;;;;5.05;1.77;;;11.50;99.90;;;;;;6202384;23;20051;-78
2023/11/19 03:05:49;;;;;;;7.65;1.98;;;11.50;99.90;;;;;;6212618;23;20028;-77
2023/11/19 03:08:17;;;;;;;6.32;2.05;;;11.50;99.90;;;;;;6236419;23;20621;-78
2023/11/19 03:10:47;;;;;;;5.05;1.95;;;11.50;99.90;;;;;;6239907;23;20058;-78
2023/11/19 03:13:14;;;;;;;7.03;2.47;;;11.60;99.90;;;;;;6211467;23;20031;-77
2023/11/19 03:15:41;;;;;;;10.68;2.78;;;11.60;99.90;;;;;;6211480;23;20026;-78
2023/11/19 03:18:08;;;;;;;7.00;3.00;;;11.70;99.90;;;;;;6186702;23;20016;-78
2023/11/19 03:20:35;;;;;;;6.10;2.10;;;11.70;99.90;;;;;;6185096;23;20023;-78
2023/11/19 03:23:02;;;;;;;5.70;2.00;;;11.70;99.90;;;;;;6237728;23;20323;-77
2023/11/19 03:25:36;;;;;;;4.18;1.27;;;11.80;99.90;;;;;;6185830;23;20020;-77
2023/11/19 03:28:03;;;;;;;4.10;1.40;;;11.80;99.90;;;;;;6213524;23;20086;-77
2023/11/19 03:30:30;;;;;;;4.75;1.60;;;11.70;99.90;;;;;;6210828;23;20608;-77
2023/11/19 03:33:01;;;;;;;4.50;1.60;;;11.70;99.90;;;;;;6212081;23;20024;-78
2023/11/19 03:35:28;;;;;;;3.72;1.52;;;11.70;99.90;;;;;;6185322;23;20020;-77
2023/11/19 03:37:55;;;;;;;4.35;1.15;;;11.70;99.90;;;;;;6210606;23;20576;-77
2023/11/19 03:40:24;;;;;;;4.65;1.50;;;11.60;99.90;;;;;;6236711;23;20287;-77
2023/11/19 03:42:51;;;;;;;2.88;1.10;;;11.60;99.90;;;;;;6211510;23;20027;-77
2023/11/19 03:45:17;;;;;;;7.15;2.28;;;11.60;99.90;;;;;;6236161;23;20547;-78
2023/11/19 03:47:44;;;;;;;3.60;1.27;;;11.60;99.90;;;;;;6211500;23;20020;-77
2023/11/19 03:50:11;;;;;;;7.65;1.85;;;11.60;99.90;;;;;;6184729;23;20350;-77
2023/11/19 03:52:38;;;;;;;5.03;2.10;;;11.60;99.90;;;;;;6236176;23;20043;-77
2023/11/19 03:55:08;;;;;;;6.22;2.10;;;11.60;99.90;;;;;;6237704;23;20105;-78
2023/11/19 03:57:35;;;;;;;5.72;1.90;;;11.60;99.90;;;;;;6236626;23;20082;-77
2023/11/19 04:00:09;;;;;;;4.68;2.40;;;11.70;99.90;;;;;;6235847;23;20020;-77
2023/11/19 04:02:37;;;;;;;5.47;2.20;;;11.70;99.90;;;;;;6212596;23;20464;-77
2023/11/19 04:05:05;;;;;;;5.13;1.70;;;11.70;99.90;;;;;;6236364;23;20028;-78
2023/11/19 04:07:32;;;;;;;7.65;2.05;;;11.70;99.90;;;;;;6210981;23;20020;-78
2023/11/19 04:10:00;;;;;;;8.93;2.17;;;11.70;99.90;;;;;;6236216;23;20081;-77
2023/11/19 04:12:27;;;;;;;5.85;2.60;;;11.70;99.90;;;;;;6236745;23;20065;-77
2023/11/19 04:14:54;;;;;;;7.68;2.53;;;11.70;99.90;;;;;;6235500;23;20459;-78
2023/11/19 04:17:23;;;;;;;4.53;1.85;;;11.70;99.90;;;;;;6187125;23;20050;-78
2023/11/19 04:19:50;;;;;;;5.22;2.10;;;11.70;99.90;;;;;;6209009;23;20050;-77
2023/11/19 04:22:17;;;;;;;9.55;2.30;;;11.80;99.90;;;;;;6210428;23;20048;-77
2023/11/19 04:24:45;;;;;;;9.32;3.35;;;11.70;99.90;;;;;;6234879;23;20074;-77
2023/11/19 04:27:12;;;;;;;8.15;2.28;;;11.80;99.90;;;;;;6236352;23;20051;-77
2023/11/19 04:29:39;;;;;;;7.82;2.65;;;11.80;99.90;;;;;;6235899;23;20315;-76
2023/11/19 04:32:07;;;;;;;6.07;2.10;;;11.80;99.90;;;;;;6210514;23;20024;-77
2023/11/19 04:34:34;;;;;;;7.82;2.22;;;11.80;99.90;;;;;;6234223;23;20454;-77
2023/11/19 04:37:05;;;;;;;9.77;2.70;;;11.80;99.90;;;;;;6235251;23;20631;-77
2023/11/19 04:39:34;;;;;;;3.97;2.10;;;11.80;99.90;;;;;;6214749;23;20039;-77
2023/11/19 04:42:02;;;;;;;8.35;2.30;;;11.80;99.90;;;;;;6210219;23;20119;-77
2023/11/19 04:44:29;;;;;;;8.25;2.55;;;11.80;99.90;;;;;;6235504;23;20059;-77
2023/11/19 04:46:57;;;;;;;8.27;2.15;;;11.80;99.90;;;;;;6235606;23;20462;-77
2023/11/19 04:49:26;;;;;;;4.13;1.80;;;11.80;99.90;;;;;;6237127;23;20035;-77
2023/11/19 04:51:54;;;;;;;4.88;1.60;;;11.80;99.90;;;;;;6210108;23;20017;-77
2023/11/19 04:54:21;;;;;;;5.25;1.70;;;11.80;99.90;;;;;;6210299;23;20070;-77
2023/11/19 04:56:48;;;;;;;5.65;1.95;;;11.80;99.90;;;;;;6209662;23;20020;-77
2023/11/19 04:59:15;;;;;;;6.65;1.95;;;11.80;99.90;;;;;;6210420;23;20046;-77
2023/11/19 05:01:49;;;;;;;6.85;2.75;;;11.80;99.90;;;;;;6235407;23;20342;-77
2023/11/19 05:04:15;;;;;;;8.63;3.25;;;11.80;99.90;;;;;;6235178;23;20508;-77
2023/11/19 05:06:43;;;;;;;6.30;2.00;;;11.80;99.90;;;;;;6208364;23;20047;-77
2023/11/19 05:09:12;;;;;;;8.70;2.85;;;11.80;99.90;;;;;;6235676;23;20082;-77
2023/11/19 05:11:40;;;;;;;5.68;2.17;;;11.90;99.90;;;;;;6235184;23;20023;-76
2023/11/19 05:14:10;;;;;;;8.52;2.28;;;11.90;99.90;;;;;;6237489;23;20020;-77
2023/11/19 05:16:41;;;;;;;8.98;2.33;;;11.90;99.90;;;;;;6210594;23;20021;-77
2023/11/19 05:19:08;;;;;;;6.03;2.17;;;11.80;99.90;;;;;;6210757;23;20385;-76
2023/11/19 05:21:35;;;;;;;6.30;2.45;;;11.80;99.90;;;;;;6233710;23;20024;-76
2023/11/19 05:24:05;;;;;;;4.25;1.52;;;11.80;99.90;;;;;;6209348;23;20019;-76
2023/11/19 05:26:32;;;;;;;4.85;1.58;;;11.90;99.90;;;;;;6210473;23;20338;-76
2023/11/19 05:28:59;;;;;;;6.10;2.22;;;11.90;99.90;;;;;;6235191;23;20020;-76
2023/11/19 05:31:26;;;;;;;11.70;2.95;;;11.90;99.90;;;;;;6235283;23;20024;-77
2023/11/19 05:33:53;;;;;;;8.73;2.40;;;11.90;99.90;;;;;;6235103;23;20474;-77
2023/11/19 05:36:20;;;;;;;4.20;1.73;;;11.90;99.90;;;;;;6233143;23;20024;-77
2023/11/19 05:38:47;;;;;;;4.68;1.83;;;11.80;99.90;;;;;;6235151;23;20024;-77
2023/11/19 05:41:14;;;;;;;5.63;1.85;;;11.80;99.90;;;;;;6236944;23;20393;-76
2023/11/19 05:43:42;;;;;;;4.38;1.65;;;11.80;99.90;;;;;;6235505;23;20067;-76
2023/11/19 05:46:09;;;;;;;3.15;1.27;;;11.80;99.90;;;;;;6234641;23;20095;-77
2023/11/19 05:48:38;;;;;;;3.72;1.50;;;11.80;99.90;;;;;;6208015;23;20323;-77
2023/11/19 05:51:05;;;;;;;6.65;1.98;;;11.90;99.90;;;;;;6206429;23;20086;-77
2023/11/19 05:53:32;;;;;;;6.57;2.17;;;12.00;99.90;;;;;;6207272;23;20024;-77
2023/11/19 05:56:03;;;;;;;6.70;2.28;;;12.00;99.90;;;;;;6208249;23;20438;-76
2023/11/19 05:58:30;;;;;;;5.72;2.20;;;12.10;99.90;;;;;;6233188;23;20024;-77
2023/11/19 06:00:57;;;;;;;5.47;2.15;;;12.10;99.90;;;;;;6233016;23;20096;-77
2023/11/19 06:03:24;;;;;;;6.80;2.38;;;12.10;99.90;;;;;;6180472;23;20028;-77
2023/11/19 06:05:51;;;;;;;6.75;2.50;;;12.20;99.80;;;;;;6229090;23;20091;-76
2023/11/19 06:08:20;;;;;;;7.80;2.45;;;12.20;99.30;;;;;;6206956;23;20031;-77
2023/11/19 06:10:49;;;;;;;6.75;2.13;;;12.20;97.10;;;;;;6211029;23;20032;-77
2023/11/19 06:13:16;;;;;;;10.52;3.25;;;12.20;95.80;;;;;;6231690;23;20473;-76
2023/11/19 06:15:43;;;;;;;5.75;1.80;;;12.20;94.60;;;;;;6207396;23;20107;-77
2023/11/19 06:18:12;;;;;;;8.70;2.15;;;12.20;92.50;;;;;;6210842;23;20016;-77
2023/11/19 06:20:40;;;;;;;9.32;2.40;;;12.20;91.00;;;;;;6184101;23;20024;-77
2023/11/19 06:23:09;;;;;;;6.20;1.90;;;12.20;92.20;;;;;;6231745;23;20035;-77
2023/11/19 06:25:36;;;;;;;4.90;1.80;;;12.10;91.00;;;;;;6206776;23;20024;-77
2023/11/19 06:28:04;;;;;;;6.15;2.13;;;12.10;90.00;;;;;;6206840;23;20045;-77
2023/11/19 06:30:32;;;;;;;9.25;2.85;;;12.10;84.50;;;;;;6186216;23;20400;-77
2023/11/19 06:32:59;;;;;;;6.60;2.22;;;12.10;76.60;;;;;;6231965;23;20020;-76
2023/11/19 06:35:29;;;;;;;8.25;1.95;;;12.10;77.10;;;;;;6205593;23;20024;-77
2023/11/19 06:37:56;;;;;;;8.52;2.95;;;12.10;72.80;;;;;;6210035;23;20016;-76
2023/11/19 06:40:24;;;;;;;5.15;1.77;;;12.10;68.90;;;;;;6211242;23;20032;-77
2023/11/19 06:42:52;;;;;;;4.40;1.70;;;12.10;67.30;;;;;;6211188;23;20292;-76
2023/11/19 06:45:19;;;;;;;8.02;2.45;;;12.00;67.10;;;;;;6235868;23;20054;-76
2023/11/19 06:47:46;;;;;;;13.63;3.15;;;12.00;64.20;;;;;;6183841;23;20055;-77
2023/11/19 06:50:14;;;;;;;5.38;1.60;;;12.00;62.30;;;;;;6207373;23;20028;-78
2023/11/19 06:52:41;;;;;;;4.88;2.03;;;12.00;62.10;;;;;;6231956;23;20020;-76
2023/11/19 06:55:08;;;;;;;4.68;1.35;;;12.00;63.20;;;;;;6181111;23;20027;-76
2023/11/19 06:57:35;;;;;;;4.82;1.52;;;11.90;64.30;;;;;;6230250;23;20024;-76
2023/11/19 07:00:05;;;;;;;6.45;2.25;;;12.00;63.30;;;;;;6228924;23;20027;-76
2023/11/19 07:02:32;;;;;;;4.07;1.52;;;12.00;63.40;;;;;;6206079;23;20022;-76
2023/11/19 07:05:00;;;;;;;3.22;1.15;;;12.00;63.80;;;;;;6228369;23;20099;-76
2023/11/19 07:07:26;;;;;;;4.38;1.73;;;11.90;67.60;;;;;;6208652;23;20374;-77
2023/11/19 07:09:53;;;;;;;4.38;1.42;;;11.90;62.20;;;;;;6234586;23;20050;-77
2023/11/19 07:12:20;;;;;;;3.20;1.55;;;11.90;62.50;;;;;;6234589;23;20066;-76
2023/11/19 07:14:47;;;;;;;3.70;1.67;;;11.90;61.30;;;;;;6209634;23;20638;-76
2023/11/19 07:17:15;;;;;;;3.45;1.50;;;11.90;60.50;;;;;;6210735;23;20020;-78
2023/11/19 07:19:42;;;;;;;3.83;1.20;;;11.90;57.60;;;;;;6233598;23;20040;-76
2023/11/19 07:22:11;;;;;;;4.95;1.60;;;11.80;68.20;;;;;;6232963;23;20016;-77
2023/11/19 07:24:41;;;;;;;4.18;1.85;;;11.80;51.80;;;;;;6229532;23;20043;-77
2023/11/19 07:27:11;;;;;;;4.15;1.40;;;11.90;44.90;;;;;;6203576;23;20020;-77
2023/11/19 07:29:37;;;;;;;4.13;1.50;;;11.90;40.40;;;;;;6228112;23;20058;-77
2023/11/19 07:32:05;;;;;;;4.47;1.20;;;11.90;35.00;;;;;;6227089;23;20347;-77
2023/11/19 07:34:32;;;;;;;4.82;1.58;;;11.90;33.60;;;;;;6177152;23;20404;-77
2023/11/19 07:37:02;;;;;;;3.33;1.27;;;11.90;27.50;;;;;;6228440;23;20027;-77
2023/11/19 07:39:29;;;;;;;4.45;1.58;;;11.90;24.70;;;;;;6224932;23;20020;-76
2023/11/19 07:41:56;;;;;;;4.40;1.90;;;11.90;17.00;;;;;;6228013;23;20106;-77
2023/11/19 07:44:23;;;;;;;4.25;1.73;;;12.00;13.50;;;;;;6227716;23;20530;-77
2023/11/19 07:46:50;;;;;;;3.35;1.30;;;12.00;9.40;;;;;;6228062;23;20023;-77
2023/11/19 07:49:17;;;;;;;8.85;1.77;;;12.00;4.90;;;;;;6202428;23;20106;-77
2023/11/19 07:51:44;;;;;;;4.88;1.20;;;12.10;2.00;;;;;;6176488;23;20058;-76
2023/11/19 07:54:11;;;;;;;3.60;1.30;;;12.10;1.00;;;;;;6200030;23;20035;-77
2023/11/19 07:56:38;;;;;;;4.45;1.42;;;12.10;1.00;;;;;;6203351;23;20031;-77
2023/11/19 07:59:05;;;;;;;6.32;1.65;;;12.10;1.00;;;;;;6226887;23;20020;-77
2023/11/19 08:01:32;;;;;;;3.95;1.42;;;12.10;1.00;;;;;;6227095;23;20024;-77
2023/11/19 08:03:59;;;;;;;3.78;1.77;;;12.10;1.00;;;;;;6177292;23;20077;-77
2023/11/19 08:06:26;;;;;;;4.22;1.35;;;12.20;1.00;;;;;;6226183;23;20087;-77
2023/11/19 08:08:53;;;;;;;3.28;1.08;;;12.20;1.00;;;;;;6202973;23;20584;-77
2023/11/19 08:11:20;;;;;;;7.55;1.73;;;12.20;1.00;;;;;;6201833;23;20024;-77
2023/11/19 08:13:47;;;;;;;6.45;1.50;;;12.10;1.00;;;;;;6203910;23;20020;-78
2023/11/19 08:16:14;;;;;;;5.20;1.95;;;12.10;1.00;;;;;;6202833;23;20024;-77
2023/11/19 08:18:43;;;;;;;5.18;2.17;;;12.20;1.00;;;;;;6228601;23;20056;-78
2023/11/19 08:21:10;;;;;;;4.35;1.50;;;12.30;1.00;;;;;;6202786;23;20208;-77
2023/11/19 08:23:37;;;;;;;2.53;0.80;;;12.30;1.00;;;;;;6203331;23;20059;-78
2023/11/19 08:26:05;;;;;;;4.65;1.55;;;12.30;1.00;;;;;;6202734;23;20052;-77
2023/11/19 08:28:34;;;;;;;5.03;1.40;;;12.40;1.00;;;;;;6202570;23;20035;-77
2023/11/19 08:31:04;;;;;;;2.85;1.00;;;12.40;1.00;;;;;;6203106;23;20131;-78
2023/11/19 08:33:31;;;;;;;5.05;1.65;;;12.50;1.00;;;;;;6229312;23;20095;-77
2023/11/19 08:35:58;;;;;;;3.67;1.38;;;12.50;1.00;;;;;;6201398;23;20024;-77
2023/11/19 08:38:25;;;;;;;3.53;1.20;;;12.50;1.00;;;;;;6225799;23;20360;-77
2023/11/19 08:40:59;;;;;;;3.75;1.45;;;12.50;2.70;;;;;;6205007;23;20062;-79
2023/11/19 08:43:27;;;;;;;3.38;1.27;;;12.50;5.80;;;;;;6204278;23;20082;-78
2023/11/19 08:45:54;;;;;;;6.63;2.03;;;12.40;6.80;;;;;;6203378;23;20066;-75
2023/11/19 08:48:21;;;;;;;4.25;1.13;;;12.50;9.90;;;;;;6229794;23;20082;-78
2023/11/19 08:50:48;;;;;;;6.18;1.42;;;12.50;11.10;;;;;;6176630;23;20019;-78
2023/11/19 08:53:15;;;;;;;6.03;1.63;;;12.50;11.10;;;;;;6177459;23;20021;-79
2023/11/19 08:55:42;;;;;;;3.95;1.50;;;12.60;12.10;;;;;;6179528;23;20027;-85
2023/11/19 08:58:09;;;;;;;7.90;1.90;;;12.60;13.00;;;;;;6181090;23;20024;-82
2023/11/19 09:00:37;;;;;;;5.38;2.05;;;12.70;11.40;;;;;;6204663;23;20031;-81
2023/11/19 09:03:04;;;;;;;5.47;1.80;;;12.70;12.20;;;;;;6228809;23;20020;-77
2023/11/19 09:05:31;;;;;;;4.90;2.03;;;12.80;11.10;;;;;;6201183;23;20512;-77
2023/11/19 09:07:58;;;;;;;6.03;2.10;;;12.80;9.30;;;;;;6229514;23;20031;-75
2023/11/19 09:10:26;;;;;;;6.57;2.33;;;12.90;6.80;;;;;;6177817;23;20055;-77
2023/11/19 09:12:53;;;;;;;6.28;2.40;;;13.00;3.80;;;;;;6227425;23;20462;-77
2023/11/19 09:15:24;;;;;;;5.53;2.25;;;13.10;2.60;;;;;;6224963;23;20020;-77
2023/11/19 09:17:51;;;;;;;4.00;1.67;;;13.20;1.00;;;;;;6198780;23;20880;-76
2023/11/19 09:20:18;;;;;;;3.38;1.40;;;13.20;1.00;;;;;;6197359;23;20062;-77
2023/11/19 09:22:45;;;;;;;6.80;2.00;;;13.30;1.00;;;;;;6199076;23;20439;-77
2023/11/19 09:25:16;;;;;;;5.20;2.05;;;13.30;1.00;;;;;;6224409;23;20027;-77
2023/11/19 09:27:44;;;;;;;4.63;1.90;;;13.30;1.00;;;;;;6225694;23;20094;-77
2023/11/19 09:30:11;;;;;;;5.97;1.77;;;13.40;1.00;;;;;;6199038;23;20028;-77
2023/11/19 09:32:40;;;;;;;4.65;2.10;;;13.50;1.00;;;;;;6225604;23;20076;-77
2023/11/19 09:35:08;;;;;;;4.18;1.60;;;13.50;1.00;;;;;;6226120;23;20462;-77
2023/11/19 09:37:35;;;;;;;3.60;2.33;;;13.50;1.00;;;;;;6225728;23;20103;-77
2023/11/19 09:40:03;;;;;;;9.95;2.28;;;13.60;1.00;;;;;;6201034;23;20020;-77
2023/11/19 09:42:31;;;;;;;7.07;1.83;;;13.60;1.00;;;;;;6226346;23;20024;-78
2023/11/19 09:44:58;;;;;;;6.07;2.30;;;13.60;1.00;;;;;;6177236;23;20071;-77
2023/11/19 09:47:27;;;;;;;4.65;1.77;;;13.70;1.00;;;;;;6227991;23;20081;-78
2023/11/19 09:49:54;;;;;;;7.57;2.10;;;13.70;1.00;;;;;;6228174;23;20426;-78
2023/11/19 09:52:25;;;;;;;5.60;2.50;;;13.70;1.00;;;;;;6229832;23;20055;-79
2023/11/19 09:54:52;;;;;;;8.15;2.78;;;13.70;1.00;;;;;;6230566;23;20524;-78
2023/11/19 09:57:19;;;;;;;7.80;2.10;;;13.70;1.00;;;;;;6231232;23;20023;-75
2023/11/19 09:59:47;;;;;;;5.90;2.30;;;13.80;1.00;;;;;;6204012;23;20059;-78
2023/11/19 10:02:14;;;;;;;7.68;2.80;;;13.80;1.00;;;;;;6229313;23;20024;-77
2023/11/19 10:04:41;;;;;;;4.88;2.17;;;13.90;1.00;;;;;;6230133;23;20016;-78
2023/11/19 10:07:08;;;;;;;7.38;1.98;;;13.90;1.00;;;;;;6228899;23;20024;-77
2023/11/19 10:09:35;;;;;;;6.15;1.98;;;14.00;1.00;;;;;;6203951;23;20060;-78
2023/11/19 10:12:02;;;;;;;4.35;1.70;;;13.90;1.00;;;;;;6203979;23;20058;-78
2023/11/19 10:14:29;;;;;;;3.20;1.67;;;13.90;1.00;;;;;;6230574;23;20024;-78
2023/11/19 10:16:57;;;;;;;7.55;1.98;;;13.80;1.00;;;;;;6204340;23;20082;-79
2023/11/19 10:19:24;;;;;;;5.30;1.58;;;13.80;1.00;;;;;;6231704;23;20020;-78
2023/11/19 10:21:50;;;;;;;7.53;2.40;;;13.80;1.00;;;;;;6227819;23;20028;-78
2023/11/19 10:24:22;;;;;;;5.88;2.28;;;13.80;1.00;;;;;;6179131;23;20406;-79
2023/11/19 10:26:52;;;;;;;5.88;1.98;;;13.80;1.00;;;;;;6206132;23;20066;-78
2023/11/19 10:29:19;;;;;;;5.10;1.85;;;13.90;1.00;;;;;;6206424;23;20612;-77
2023/11/19 10:31:56;;;;;;;4.40;2.15;;;13.90;1.00;;;;;;6205644;23;20028;-78
2023/11/19 10:34:26;;;;;;;3.83;1.48;;;14.00;1.00;;;;;;6233177;23;20336;-77
2023/11/19 10:36:53;;;;;;;4.35;1.60;;;14.10;1.00;;;;;;6229690;23;20047;-80
2023/11/19 10:39:24;;;;;;;6.68;2.05;;;14.20;1.00;;;;;;6202390;23;20201;-79
2023/11/19 10:41:51;;;;;;;5.95;2.88;;;14.10;1.00;;;;;;6205039;23;20016;-79
2023/11/19 10:44:36;;;;;;;4.40;1.73;;;14.10;1.00;;;;;;6229657;23;20203;-78
2023/11/19 10:47:05;;;;;;;9.23;2.25;;;14.10;1.00;;;;;;6228441;23;20107;-79
2023/11/19 10:49:32;;;;;;;4.43;1.52;;;14.20;1.00;;;;;;6202581;23;20020;-78
2023/11/19 10:51:59;;;;;;;4.18;1.70;;;14.30;1.00;;;;;;6203120;23;20608;-75
2023/11/19 10:54:26;;;;;;;5.22;1.83;;;14.40;1.00;;;;;;6229775;23;20020;-79
2023/11/19 10:57:01;;;;;;;5.47;2.33;;;14.50;1.00;;;;;;6228934;23;20090;-81
2023/11/19 10:59:29;;;;;;;5.65;1.75;;;14.50;1.00;;;;;;6204313;23;20028;-80
2023/11/19 11:02:03;;;;;;;3.85;1.35;;;14.50;1.00;;;;;;6204960;23;20184;-81
2023/11/19 11:04:31;;;;;;;4.82;1.83;;;14.60;1.00;;;;;;6203208;23;20016;-79
2023/11/19 11:06:58;;;;;;;2.80;1.02;;;14.70;1.00;;;;;;6204423;23;20028;-80
2023/11/19 11:09:29;;;;;;;3.75;1.50;;;14.80;1.00;;;;;;6178647;23;20474;-80
2023/11/19 11:11:57;;;;;;;3.47;1.60;;;14.90;1.00;;;;;;6179414;23;20028;-82
2023/11/19 11:14:25;;;;;;;4.60;1.48;;;14.90;1.00;;;;;;6203806;23;20040;-80
2023/11/19 11:16:52;;;;;;;7.80;1.80;;;14.90;1.00;;;;;;6179499;23;20634;-80
2023/11/19 11:19:20;;;;;;;9.20;2.05;;;14.80;1.00;;;;;;6203725;23;20082;-80
2023/11/19 11:21:52;;;;;;;3.97;1.20;;;14.80;1.00;;;;;;6178001;23;20028;-81
2023/11/19 11:24:38;;;;;;;5.47;1.98;;;14.80;1.00;;;;;;6204222;23;20048;-81
2023/11/19 11:27:22;;;;;;;5.25;1.75;;;14.70;1.00;;;;;;6205520;23;20059;-80
2023/11/19 11:30:23;;;;;;;3.65;1.58;;;14.70;1.00;;;;;;6228502;23;20478;-80
2023/11/19 11:33:28;;;;;;;5.25;1.60;;;14.70;1.00;;;;;;6228412;23;20095;-80
2023/11/19 11:36:16;;;;;;;3.58;1.58;;;14.60;1.00;;;;;;6227577;23;20071;-81
2023/11/19 11:38:43;;;;;;;4.03;1.70;;;14.60;1.00;;;;;;6200940;23;20031;-81
2023/11/19 11:41:20;;;;;;;4.20;1.50;;;14.60;1.00;;;;;;6178996;23;20354;-81
2023/11/19 11:43:57;;;;;;;5.53;2.25;;;14.60;1.00;;;;;;6204440;23;20095;-81
2023/11/19 11:46:34;;;;;;;5.03;2.47;;;14.60;1.00;;;;;;6204979;23;20098;-81
2023/11/19 11:54:19;;;;;;;2.80;1.30;;;14.70;1.00;;;;;;6261949;22;20074;-79
2023/11/19 11:57:03;;;;;;;4.38;1.60;;;14.60;1.00;;;;;;6259477;22;20481;-79
2023/11/19 11:59:42;;;;;;;4.57;1.70;;;14.60;1.00;;;;;;6266611;22;20250;-79
2023/11/19 12:02:09;;;;;;;3.60;1.52;;;14.60;1.00;;;;;;6265517;22;20582;-79
2023/11/19 12:04:36;;;;;;;6.88;1.60;;;14.60;1.00;;;;;;6263697;22;20089;-79
2023/11/19 12:07:18;;;;;;;5.07;1.27;;;14.60;1.00;;;;;;6215251;22;20027;-79
2023/11/19 12:10:09;;;;;;;4.63;1.52;;;14.70;1.00;;;;;;6215886;22;20324;-78
2023/11/19 12:12:37;;;;;;;3.38;1.52;;;14.70;1.00;;;;;;6264924;22;20445;-79
2023/11/19 12:15:12;;;;;;;6.35;2.15;;;14.80;1.00;;;;;;6240438;22;20026;-75
2023/11/19 12:17:46;;;;;;;5.22;1.70;;;14.70;1.00;;;;;;6243041;22;20465;-79
2023/11/19 12:20:13;;;;;;;4.95;1.58;;;14.80;1.00;;;;;;6264321;22;20477;-79
2023/11/19 12:22:44;;;;;;;7.07;2.35;;;14.80;1.00;;;;;;6214973;22;20042;-79
2023/11/19 12:25:11;;;;;;;4.03;1.40;;;14.80;1.00;;;;;;6240201;22;20316;-79
2023/11/19 12:27:51;;;;;;;2.92;1.63;;;14.80;1.00;;;;;;6240457;22;20096;-79
2023/11/19 12:30:25;;;;;;;5.40;1.75;;;14.80;1.00;;;;;;6241294;22;20019;-79
2023/11/19 12:32:56;;;;;;;4.75;1.60;;;14.80;1.00;;;;;;6216563;22;20053;-81
2023/11/19 12:35:23;;;;;;;4.95;1.70;;;14.80;1.00;;;;;;6217160;22;20524;-81
2023/11/19 12:37:52;;;;;;;4.07;1.20;;;14.90;1.00;;;;;;6217790;22;20021;-81
2023/11/19 12:40:21;;;;;;;3.03;1.33;;;14.90;1.00;;;;;;6217637;22;20080;-81
2023/11/19 12:42:48;;;;;;;3.22;1.45;;;14.80;1.00;;;;;;6218231;22;20023;-81
2023/11/19 12:45:16;;;;;;;3.15;1.17;;;14.80;1.00;;;;;;6243037;22;20206;-81
2023/11/19 12:47:43;;;;;;;2.75;1.30;;;14.80;1.00;;;;;;6243320;22;20019;-79
2023/11/19 12:50:10;;;;;;;3.92;1.67;;;14.80;1.00;;;;;;6241294;22;20496;-82
2023/11/19 12:52:37;;;;;;;7.40;2.33;;;14.80;1.00;;;;;;6241832;22;20029;-82
2023/11/19 12:55:08;;;;;;;8.02;2.65;;;14.70;1.00;;;;;;6240817;22;20185;-82
2023/11/19 12:57:41;;;;;;;5.15;2.20;;;14.60;1.00;;;;;;6245166;22;20021;-81
2023/11/19 13:00:21;;;;;;;7.20;2.25;;;14.70;1.00;;;;;;6243022;22;20110;-81
2023/11/19 13:02:51;;;;;;;19.38;8.18;;;14.70;1.00;;;;;;6268641;22;20049;-85
2023/11/19 13:05:31;;;;;;;11.07;5.10;;;14.60;1.00;;;;;;6218108;22;20376;-79
2023/11/19 13:08:01;;;;;;;9.68;3.63;;;14.60;1.00;;;;;;6268452;22;20023;-81